Haacht, Belgium
Current Conditions -  °F | °C
As of 10:20 PM on Sunday 21 Dec 2014 (Local Time) from EBBR Reporting Station
Broken Clouds Broken Clouds  
Wind Chill: 38°   Ceiling: 1700
Heat Index: 46°   Visibility: 6mi
Dew Point: 41°   Wind: 23mph
Humidity: 81%   Direction: 230°SW
Pressure: 30.27"   Gusts: 36mph
Location:  50.98°N, 4.64°E
Report Text: EBBR 212120Z 23020G31KT 9999 BKN017 BKN023 08/05 Q1025 TEMPO 23023G35KT BKN014
Loading
Personal Weather Stations






























Interactive Weather Map New forecast layout! Learn more

10-Day Weather Forecast

Advertisements
Track Severe Weather on mobile